Time;durP1;ratioP1;P1;durP2;ratioP2;P2;SDS_P1;SDS_P2;PMS_P1;PMS_P2;Temp;Humidity;BMP_temperature;BMP_pressure;BME280_temperature;BME280_humidity;BME280_pressure;Samples;Min_cycle;Max_cycle;Signal;HPM_P1;HPM_P2
2022/11/15 00:02:03;;;;;;;18.83;9.63;;;11.10;99.90;;;;;;5044912;28;20029;-74
2022/11/15 00:04:29;;;;;;;17.83;9.93;;;11.10;99.90;;;;;;5032531;28;20049;-74
2022/11/15 00:06:55;;;;;;;17.90;10.93;;;11.20;99.90;;;;;;5029442;28;20484;-74
2022/11/15 00:09:20;;;;;;;17.05;10.00;;;11.20;99.90;;;;;;5025254;28;20034;-74
2022/11/15 00:11:48;;;;;;;18.38;9.23;;;11.20;99.90;;;;;;5026735;28;20025;-74
2022/11/15 00:14:16;;;;;;;18.92;9.88;;;11.20;99.90;;;;;;5032283;28;20033;-74
2022/11/15 00:16:42;;;;;;;20.92;10.45;;;11.30;99.90;;;;;;5031542;28;20026;-74
2022/11/15 00:19:08;;;;;;;19.52;10.43;;;11.30;99.90;;;;;;5036062;28;20029;-74
2022/11/15 00:21:33;;;;;;;20.95;9.95;;;11.30;99.90;;;;;;5033412;28;20132;-74
2022/11/15 00:23:59;;;;;;;18.55;9.85;;;11.30;99.90;;;;;;5034530;28;20512;-73
2022/11/15 00:26:24;;;;;;;15.07;9.43;;;11.30;99.90;;;;;;5029699;28;20021;-75
2022/11/15 00:28:52;;;;;;;17.30;9.35;;;11.40;99.90;;;;;;5030480;28;20021;-74
2022/11/15 00:31:20;;;;;;;16.38;9.27;;;11.40;99.90;;;;;;5035171;28;20033;-75
2022/11/15 00:33:48;;;;;;;19.67;9.35;;;11.40;99.90;;;;;;5037081;28;20037;-74
2022/11/15 00:36:14;;;;;;;18.02;9.35;;;11.40;99.90;;;;;;5036687;28;20120;-73
2022/11/15 00:38:40;;;;;;;21.13;9.77;;;11.40;99.90;;;;;;5033392;28;20108;-73
2022/11/15 00:41:09;;;;;;;17.63;9.85;;;11.40;99.90;;;;;;5034252;28;20051;-74
2022/11/15 00:43:34;;;;;;;16.25;9.75;;;11.40;99.90;;;;;;5034643;28;20026;-74
2022/11/15 00:46:02;;;;;;;16.73;9.63;;;11.40;99.90;;;;;;5028096;28;20087;-74
2022/11/15 00:48:29;;;;;;;16.40;9.55;;;11.40;99.90;;;;;;5046883;28;20050;-75
2022/11/15 00:50:54;;;;;;;17.63;9.60;;;11.50;99.90;;;;;;5032099;28;20040;-74
2022/11/15 00:53:20;;;;;;;18.02;9.50;;;11.50;99.90;;;;;;5033270;28;20025;-74
2022/11/15 00:55:46;;;;;;;16.48;9.25;;;11.50;99.90;;;;;;5030013;28;20443;-74
2022/11/15 00:58:12;;;;;;;15.77;9.52;;;11.50;99.90;;;;;;5031754;28;20116;-74
2022/11/15 01:00:37;;;;;;;21.45;9.85;;;11.50;99.90;;;;;;5033912;28;20104;-74
2022/11/15 01:03:03;;;;;;;20.40;9.77;;;11.60;99.90;;;;;;5034137;28;20025;-71
2022/11/15 01:05:28;;;;;;;17.15;9.45;;;11.70;99.90;;;;;;5027927;28;20079;-74
2022/11/15 01:07:57;;;;;;;18.40;9.93;;;11.60;99.90;;;;;;5031801;28;20025;-74
2022/11/15 01:10:23;;;;;;;16.73;9.85;;;11.70;99.90;;;;;;5031417;28;20622;-73
2022/11/15 01:12:49;;;;;;;17.13;9.38;;;11.80;99.90;;;;;;5033095;28;20021;-75
2022/11/15 01:15:16;;;;;;;17.40;9.45;;;11.80;99.90;;;;;;5031966;28;20112;-74
2022/11/15 01:17:44;;;;;;;15.75;10.05;;;11.90;99.90;;;;;;5033726;28;20047;-75
2022/11/15 01:20:10;;;;;;;18.88;9.55;;;11.90;99.90;;;;;;5031522;28;20143;-75
2022/11/15 01:22:35;;;;;;;22.88;9.85;;;12.00;99.90;;;;;;5033757;28;20026;-73
2022/11/15 01:25:04;;;;;;;15.27;8.80;;;12.10;99.90;;;;;;5031778;28;20022;-74
2022/11/15 01:27:32;;;;;;;16.30;9.45;;;12.00;99.90;;;;;;5034151;28;20044;-74
2022/11/15 01:29:57;;;;;;;18.58;9.15;;;12.10;99.90;;;;;;5032177;28;20021;-74
2022/11/15 01:32:25;;;;;;;15.98;9.60;;;12.10;99.90;;;;;;5035500;28;20044;-73
2022/11/15 01:34:51;;;;;;;17.85;9.52;;;12.20;99.90;;;;;;5033118;28;20083;-74
2022/11/15 01:37:17;;;;;;;18.40;9.65;;;12.20;99.90;;;;;;5029876;28;20396;-75
2022/11/15 01:39:42;;;;;;;17.50;9.43;;;12.20;99.90;;;;;;5033713;28;20044;-73
2022/11/15 01:42:18;;;;;;;14.00;9.13;;;12.20;99.90;;;;;;5033493;28;20022;-74
2022/11/15 01:44:48;;;;;;;20.50;10.23;;;12.20;99.90;;;;;;5031330;28;20025;-74
2022/11/15 01:47:19;;;;;;;14.23;8.82;;;12.20;99.90;;;;;;5039282;28;20093;-74
2022/11/15 01:50:06;;;;;;;15.30;8.40;;;12.20;99.90;;;;;;5031169;28;20033;-75
2022/11/15 01:52:35;;;;;;;17.83;9.10;;;12.20;99.90;;;;;;5025918;28;20437;-75
2022/11/15 01:55:22;;;;;;;15.23;8.52;;;12.20;99.90;;;;;;5031046;28;20018;-75
2022/11/15 01:57:55;;;;;;;15.00;8.55;;;12.30;99.90;;;;;;5041260;28;20120;-75
2022/11/15 02:00:20;;;;;;;18.20;9.32;;;12.30;99.90;;;;;;5032006;28;20032;-74
2022/11/15 02:02:46;;;;;;;15.73;8.50;;;12.30;99.90;;;;;;5033510;28;20362;-74
2022/11/15 02:05:12;;;;;;;13.30;8.80;;;12.30;99.90;;;;;;5032083;28;20033;-74
2022/11/15 02:07:38;;;;;;;13.93;8.40;;;12.40;99.90;;;;;;5032659;28;20044;-75
2022/11/15 02:10:13;;;;;;;17.90;8.40;;;12.50;99.90;;;;;;5034740;28;20724;-74
2022/11/15 02:12:39;;;;;;;13.40;8.80;;;12.50;99.90;;;;;;5034254;28;20029;-75
2022/11/15 02:15:07;;;;;;;17.23;8.73;;;12.50;99.90;;;;;;5029987;28;20396;-74
2022/11/15 02:17:42;;;;;;;15.32;8.40;;;12.50;99.90;;;;;;5034693;28;20036;-74
2022/11/15 02:20:29;;;;;;;17.77;8.75;;;12.50;99.90;;;;;;5028573;28;20072;-74
2022/11/15 02:23:19;;;;;;;15.27;8.10;;;12.60;99.90;;;;;;5032527;28;20096;-74
2022/11/15 02:25:51;;;;;;;18.38;8.52;;;12.60;99.90;;;;;;5031028;28;20022;-74
2022/11/15 02:28:35;;;;;;;16.55;8.70;;;12.70;99.90;;;;;;5031615;28;20049;-73
2022/11/15 02:31:11;;;;;;;13.80;7.78;;;12.70;99.90;;;;;;5027890;28;20033;-74
2022/11/15 02:34:11;;;;;;;15.27;8.43;;;12.70;99.90;;;;;;5043965;28;20442;-74
2022/11/15 02:36:57;;;;;;;15.95;7.90;;;12.80;99.90;;;;;;5030308;28;20140;-74
2022/11/15 02:39:37;;;;;;;16.27;8.02;;;12.70;99.90;;;;;;5031088;28;20056;-74
2022/11/15 02:45:08;;;;;;;15.25;8.63;;;12.80;99.90;;;;;;5047914;28;20064;-74
2022/11/15 02:47:43;;;;;;;13.48;8.60;;;12.80;99.90;;;;;;5020705;28;20583;-73
2022/11/15 02:50:12;;;;;;;15.02;8.55;;;12.90;99.90;;;;;;5023538;28;20431;-72
2022/11/15 02:52:38;;;;;;;12.48;8.30;;;12.90;99.90;;;;;;5031513;28;20666;-73
2022/11/15 02:55:04;;;;;;;13.25;7.95;;;12.90;99.90;;;;;;5034262;28;20026;-73
2022/11/15 02:57:56;;;;;;;13.43;7.68;;;12.90;99.90;;;;;;5037621;28;20102;-73
2022/11/15 03:00:22;;;;;;;15.15;7.43;;;12.90;99.90;;;;;;5039709;28;20093;-74
2022/11/15 03:03:11;;;;;;;13.27;8.02;;;12.90;99.90;;;;;;5028872;28;20037;-73
2022/11/15 03:06:02;;;;;;;18.30;8.27;;;12.80;99.90;;;;;;5035185;28;20443;-72
2022/11/15 03:08:30;;;;;;;12.63;8.18;;;12.80;99.90;;;;;;5042369;28;20500;-75
2022/11/15 03:11:13;;;;;;;13.27;7.40;;;12.90;99.90;;;;;;5025083;28;20057;-74
2022/11/15 03:13:53;;;;;;;13.30;7.50;;;12.90;99.90;;;;;;5028811;28;20026;-74
2022/11/15 03:16:29;;;;;;;12.65;8.23;;;13.00;99.90;;;;;;5031725;28;20029;-73
2022/11/15 03:19:05;;;;;;;14.25;8.10;;;13.00;99.90;;;;;;5030054;28;20040;-75
2022/11/15 03:21:35;;;;;;;14.75;7.53;;;13.10;99.90;;;;;;5033216;28;20357;-74
2022/11/15 03:24:05;;;;;;;14.45;7.05;;;13.10;99.90;;;;;;5028437;28;20044;-74
2022/11/15 03:26:33;;;;;;;13.63;7.85;;;13.20;99.90;;;;;;5022869;28;20018;-74
2022/11/15 03:29:12;;;;;;;12.85;7.78;;;13.20;99.90;;;;;;5036848;28;20036;-74
2022/11/15 03:31:51;;;;;;;11.70;7.30;;;13.30;99.90;;;;;;5032554;28;20029;-74
2022/11/15 03:34:54;;;;;;;11.77;7.68;;;13.30;99.90;;;;;;5029354;28;20029;-74
2022/11/15 03:37:24;;;;;;;10.52;7.20;;;13.30;99.90;;;;;;5027480;28;20045;-74
2022/11/15 03:39:53;;;;;;;12.90;7.18;;;13.30;99.90;;;;;;5023305;28;20030;-74
2022/11/15 03:42:30;;;;;;;11.00;7.45;;;13.40;99.90;;;;;;5030363;28;20084;-74
2022/11/15 03:45:02;;;;;;;11.15;6.90;;;13.40;99.90;;;;;;5037940;28;20394;-74
2022/11/15 03:47:53;;;;;;;15.85;7.85;;;13.40;99.90;;;;;;5031984;28;20501;-74
2022/11/15 03:50:22;;;;;;;12.68;6.93;;;13.50;99.90;;;;;;5035433;28;20045;-74
2022/11/15 03:52:49;;;;;;;11.48;7.22;;;13.50;99.90;;;;;;5038584;28;20072;-74
2022/11/15 03:55:20;;;;;;;12.05;6.43;;;13.50;99.90;;;;;;5026264;28;20033;-75
2022/11/15 03:57:48;;;;;;;11.40;7.25;;;13.50;99.90;;;;;;5025566;28;20021;-75
2022/11/15 04:00:14;;;;;;;11.32;7.72;;;13.60;99.90;;;;;;5026093;28;20120;-76
2022/11/15 04:02:39;;;;;;;15.10;8.05;;;13.50;99.90;;;;;;5026780;28;20088;-73
2022/11/15 04:05:05;;;;;;;16.10;7.82;;;13.50;99.90;;;;;;5025097;28;20057;-75
2022/11/15 04:07:31;;;;;;;11.38;7.18;;;13.50;99.90;;;;;;5034346;28;20028;-75
2022/11/15 04:10:02;;;;;;;19.33;8.40;;;13.50;99.90;;;;;;5031744;28;20025;-75
2022/11/15 04:12:40;;;;;;;13.20;8.18;;;13.40;99.90;;;;;;5036452;28;20017;-75
2022/11/15 04:15:07;;;;;;;15.48;8.05;;;13.40;99.90;;;;;;5034112;28;20493;-75
2022/11/15 04:17:57;;;;;;;15.48;8.35;;;13.40;99.90;;;;;;5035212;28;20087;-76
2022/11/15 04:26:00;;;;;;;17.13;9.13;;;13.20;99.90;;;;;;5026833;28;20036;-75
2022/11/15 04:28:26;;;;;;;16.08;8.77;;;13.20;99.90;;;;;;5027743;28;20086;-76
2022/11/15 04:30:54;;;;;;;14.75;8.45;;;13.10;99.90;;;;;;5024245;28;20105;-75
2022/11/15 04:33:21;;;;;;;15.07;8.70;;;13.10;99.90;;;;;;5033771;28;20044;-76
2022/11/15 04:37:11;;;;;;;15.73;9.45;;;13.10;99.90;;;;;;5029221;28;20029;-77
2022/11/15 04:38:32;;;;;;;12.88;8.70;;;13.00;99.90;;;;;;5037781;28;20048;-73
2022/11/15 04:40:57;;;;;;;16.55;8.90;;;13.10;99.90;;;;;;5033354;28;20022;-75
2022/11/15 04:43:23;;;;;;;14.50;9.43;;;13.10;99.90;;;;;;5016965;28;20030;-76
2022/11/15 04:45:49;;;;;;;13.95;9.40;;;13.00;99.90;;;;;;5028509;28;20049;-76
2022/11/15 04:48:14;;;;;;;16.10;8.77;;;13.10;99.90;;;;;;5025632;28;20036;-77
2022/11/15 04:50:40;;;;;;;17.05;9.13;;;13.10;99.90;;;;;;5024422;28;20030;-74
2022/11/15 04:53:06;;;;;;;15.38;8.73;;;13.10;99.90;;;;;;5022652;28;20328;-77
2022/11/15 04:55:34;;;;;;;13.48;8.38;;;13.20;99.90;;;;;;5024133;28;20068;-75
2022/11/15 04:58:02;;;;;;;16.27;8.90;;;13.20;99.90;;;;;;5034537;28;20040;-73
2022/11/15 05:00:29;;;;;;;15.80;9.40;;;13.20;99.90;;;;;;5035689;28;20052;-75
2022/11/15 05:05:41;;;;;;;14.73;9.00;;;13.10;99.90;;;;;;5036357;28;20881;-75
2022/11/15 05:08:06;;;;;;;19.23;10.00;;;13.10;99.90;;;;;;5031963;28;20026;-78
2022/11/15 05:10:32;;;;;;;14.10;8.93;;;13.10;99.90;;;;;;5031630;28;20025;-77
2022/11/15 05:12:57;;;;;;;12.38;9.07;;;13.10;99.90;;;;;;5030440;28;20450;-74
2022/11/15 05:15:25;;;;;;;19.27;9.85;;;13.00;99.90;;;;;;5031149;28;20360;-76
2022/11/15 05:17:56;;;;;;;12.38;8.90;;;13.00;99.90;;;;;;5029483;28;20048;-76
2022/11/15 05:20:24;;;;;;;16.65;9.93;;;13.00;99.90;;;;;;5031523;28;20037;-75
2022/11/15 05:22:53;;;;;;;19.35;10.82;;;13.10;99.90;;;;;;5033050;28;20046;-76
2022/11/15 05:25:19;;;;;;;15.40;9.30;;;13.00;99.90;;;;;;5037614;28;20025;-76
2022/11/15 05:27:46;;;;;;;14.55;9.50;;;13.10;99.90;;;;;;5035155;28;20076;-77
2022/11/15 05:30:13;;;;;;;14.45;9.32;;;13.10;99.90;;;;;;5040628;28;20454;-74
2022/11/15 05:32:39;;;;;;;16.95;9.70;;;13.10;99.90;;;;;;5028749;28;20041;-76
2022/11/15 05:35:08;;;;;;;15.02;9.68;;;13.00;99.90;;;;;;5029032;28;20039;-76
2022/11/15 05:37:34;;;;;;;18.10;10.02;;;13.00;99.90;;;;;;5028610;28;20046;-76
2022/11/15 05:40:00;;;;;;;16.48;9.90;;;13.00;99.90;;;;;;5031702;28;20028;-75
2022/11/15 05:42:27;;;;;;;14.02;8.80;;;13.00;99.90;;;;;;5030582;28;20022;-76
2022/11/15 05:44:53;;;;;;;13.55;8.77;;;13.10;99.90;;;;;;5034021;28;20087;-76
2022/11/15 05:47:25;;;;;;;16.13;8.38;;;13.10;99.90;;;;;;5035037;28;20446;-76
2022/11/15 05:49:51;;;;;;;14.93;9.43;;;13.10;99.90;;;;;;5035228;28;20025;-76
2022/11/15 05:52:20;;;;;;;19.20;9.43;;;13.20;99.90;;;;;;5035134;28;20026;-76
2022/11/15 05:54:49;;;;;;;16.08;8.90;;;13.20;99.90;;;;;;5031177;28;20035;-74
2022/11/15 05:57:17;;;;;;;17.92;9.73;;;13.20;99.90;;;;;;5035471;28;20026;-75
2022/11/15 05:59:45;;;;;;;13.20;8.80;;;13.20;99.90;;;;;;5030536;28;20076;-76
2022/11/15 06:02:11;;;;;;;20.02;9.95;;;13.20;99.90;;;;;;5027781;28;20072;-76
2022/11/15 06:04:37;;;;;;;16.50;9.55;;;13.20;99.90;;;;;;5031710;28;20053;-75
2022/11/15 06:07:05;;;;;;;19.25;9.52;;;13.30;99.90;;;;;;5033824;28;20395;-74
2022/11/15 06:09:31;;;;;;;15.57;9.00;;;13.30;99.90;;;;;;5033914;28;20040;-76
2022/11/15 06:11:56;;;;;;;14.80;9.18;;;13.30;99.90;;;;;;5035153;28;20029;-74
2022/11/15 06:14:22;;;;;;;14.20;9.20;;;13.30;99.90;;;;;;5037716;28;20032;-76
2022/11/15 06:16:50;;;;;;;15.50;8.65;;;13.30;99.90;;;;;;5037921;28;20025;-77
2022/11/15 06:19:16;;;;;;;14.35;8.25;;;13.30;99.90;;;;;;5032480;28;20414;-76
2022/11/15 06:21:44;;;;;;;15.15;8.52;;;13.30;99.90;;;;;;5039765;28;20026;-76
2022/11/15 06:24:10;;;;;;;12.13;8.02;;;13.30;99.90;;;;;;5047069;28;20087;-78
2022/11/15 06:26:35;;;;;;;12.95;8.25;;;13.30;99.90;;;;;;5035777;28;20393;-76
2022/11/15 06:29:03;;;;;;;11.88;8.05;;;13.40;99.90;;;;;;5037734;28;20025;-77
2022/11/15 06:31:31;;;;;;;15.70;8.75;;;13.40;99.90;;;;;;5041689;28;20021;-76
2022/11/15 06:33:57;;;;;;;20.20;8.43;;;13.40;99.90;;;;;;5039680;28;20136;-76
2022/11/15 06:36:25;;;;;;;17.13;7.97;;;13.50;99.90;;;;;;5035163;28;20033;-75
2022/11/15 06:38:51;;;;;;;11.88;7.82;;;13.50;99.90;;;;;;5034218;28;20493;-76
2022/11/15 06:41:17;;;;;;;12.23;7.40;;;13.50;99.90;;;;;;5037359;28;20068;-76
2022/11/15 06:43:43;;;;;;;13.00;8.70;;;13.50;99.90;;;;;;5029624;28;20053;-75
2022/11/15 06:46:09;;;;;;;10.30;7.35;;;13.40;99.90;;;;;;5034780;28;20123;-75
2022/11/15 06:48:36;;;;;;;13.43;6.97;;;13.40;99.90;;;;;;5037019;28;20029;-76
2022/11/15 06:51:03;;;;;;;13.07;7.20;;;13.50;99.90;;;;;;5034337;28;20017;-77
2022/11/15 06:53:30;;;;;;;17.00;8.50;;;13.50;99.90;;;;;;5028367;28;20440;-76
2022/11/15 06:56:05;;;;;;;13.88;7.93;;;13.40;99.90;;;;;;5030970;28;20031;-76
2022/11/15 06:58:33;;;;;;;14.25;8.15;;;13.50;99.90;;;;;;5035184;28;20048;-76
2022/11/15 07:01:10;;;;;;;17.30;8.30;;;13.50;99.90;;;;;;5036467;28;20037;-76
2022/11/15 07:03:38;;;;;;;19.52;7.55;;;13.50;99.90;;;;;;5035245;28;20870;-74
2022/11/15 07:06:04;;;;;;;15.75;7.00;;;13.50;99.90;;;;;;5035219;28;20102;-75
2022/11/15 07:08:32;;;;;;;18.30;7.20;;;13.50;99.90;;;;;;5032371;28;20017;-76
2022/11/15 07:11:00;;;;;;;12.45;7.60;;;13.50;99.90;;;;;;5030949;28;20112;-76
2022/11/15 07:13:27;;;;;;;11.05;7.53;;;13.50;99.90;;;;;;5029316;28;20025;-76
2022/11/15 07:15:52;;;;;;;10.60;6.45;;;13.50;99.90;;;;;;5027244;28;20647;-76
2022/11/15 07:18:18;;;;;;;11.48;6.60;;;13.50;99.90;;;;;;5020862;28;20034;-76
2022/11/15 07:20:44;;;;;;;14.00;6.90;;;13.50;99.90;;;;;;5033362;28;20036;-75
2022/11/15 07:23:10;;;;;;;11.75;6.78;;;13.60;99.90;;;;;;5036014;28;20033;-76
2022/11/15 07:25:35;;;;;;;16.05;7.22;;;13.60;99.90;;;;;;5033644;28;20025;-76
2022/11/15 07:28:03;;;;;;;14.00;6.78;;;13.60;99.90;;;;;;5030576;28;20024;-76
2022/11/15 07:30:30;;;;;;;8.02;5.65;;;13.60;99.90;;;;;;5032946;28;20022;-76
2022/11/15 07:32:57;;;;;;;10.23;6.57;;;13.70;99.90;;;;;;5031574;28;20108;-75
2022/11/15 07:35:23;;;;;;;10.32;5.75;;;13.70;99.90;;;;;;5029789;28;20038;-76
2022/11/15 07:38:02;;;;;;;11.15;6.32;;;13.70;99.90;;;;;;5030752;28;20048;-75
2022/11/15 07:40:32;;;;;;;10.77;6.18;;;13.70;99.90;;;;;;5025708;28;20505;-78
2022/11/15 07:43:07;;;;;;;9.27;5.75;;;13.70;99.90;;;;;;5028291;28;20033;-75
2022/11/15 07:45:41;;;;;;;13.05;6.57;;;13.70;99.90;;;;;;5037572;28;20413;-76
2022/11/15 07:48:07;;;;;;;13.60;6.85;;;13.70;99.90;;;;;;5034233;28;20144;-72
2022/11/15 07:50:32;;;;;;;25.38;10.85;;;13.70;99.90;;;;;;5028795;28;20104;-72
2022/11/15 07:52:59;;;;;;;10.77;6.32;;;13.70;99.90;;;;;;5025064;28;20133;-76
2022/11/15 07:55:27;;;;;;;15.73;5.97;;;13.70;99.90;;;;;;5028225;28;20488;-75
2022/11/15 07:57:52;;;;;;;9.57;5.68;;;13.60;99.90;;;;;;5030339;28;20355;-76
2022/11/15 08:00:19;;;;;;;8.90;6.07;;;13.60;99.90;;;;;;5031839;28;20033;-76
2022/11/15 08:02:47;;;;;;;10.25;5.80;;;13.70;99.90;;;;;;5029248;28;20022;-74
2022/11/15 08:05:14;;;;;;;8.00;4.72;;;13.70;99.90;;;;;;5030570;28;20076;-74
2022/11/15 08:07:42;;;;;;;7.00;4.30;;;13.60;99.90;;;;;;5032153;28;20109;-73
2022/11/15 08:10:11;;;;;;;6.15;4.03;;;13.60;99.90;;;;;;5026511;28;20108;-74
2022/11/15 08:12:39;;;;;;;6.85;4.88;;;13.50;99.90;;;;;;5027184;28;20037;-73
2022/11/15 08:15:05;;;;;;;5.60;4.13;;;13.60;99.90;;;;;;5031447;28;20032;-72
2022/11/15 08:17:34;;;;;;;7.50;4.25;;;13.50;99.90;;;;;;5028017;28;20040;-75
2022/11/15 08:20:00;;;;;;;5.95;4.20;;;13.60;99.90;;;;;;5029727;28;20033;-73
2022/11/15 08:22:28;;;;;;;8.18;4.30;;;13.50;99.90;;;;;;5031249;28;20029;-76
2022/11/15 08:24:54;;;;;;;6.32;4.72;;;13.60;99.90;;;;;;5030626;28;20032;-74
2022/11/15 08:27:19;;;;;;;4.18;3.42;;;13.60;99.90;;;;;;5031674;28;20029;-73
2022/11/15 08:29:46;;;;;;;6.55;3.75;;;13.60;99.90;;;;;;5033761;28;20059;-72
2022/11/15 08:32:11;;;;;;;6.90;4.18;;;13.50;99.90;;;;;;5028308;28;20061;-74
2022/11/15 08:34:38;;;;;;;5.28;3.80;;;13.60;99.90;;;;;;5032994;28;20068;-75
2022/11/15 08:37:04;;;;;;;4.35;3.85;;;13.60;99.90;;;;;;5025638;28;20029;-73
2022/11/15 08:39:30;;;;;;;8.35;3.35;;;13.60;99.90;;;;;;5033363;28;20040;-72
2022/11/15 08:41:56;;;;;;;3.83;2.90;;;13.50;99.90;;;;;;5025896;28;20415;-74
2022/11/15 08:44:23;;;;;;;4.50;3.42;;;13.50;99.90;;;;;;5030102;28;20037;-75
2022/11/15 08:46:49;;;;;;;3.55;3.25;;;13.50;99.90;;;;;;5030432;28;20028;-72
2022/11/15 08:49:15;;;;;;;5.65;3.30;;;13.40;99.90;;;;;;5033308;28;20021;-75
2022/11/15 08:51:41;;;;;;;4.45;3.50;;;13.40;99.90;;;;;;5039025;28;20033;-74
2022/11/15 08:54:07;;;;;;;8.10;3.03;;;13.50;99.90;;;;;;5040818;28;20040;-72
2022/11/15 08:56:33;;;;;;;4.68;2.88;;;13.40;99.90;;;;;;5038443;28;20098;-74
2022/11/15 08:58:59;;;;;;;4.63;3.03;;;13.50;99.90;;;;;;5037772;28;20462;-75
2022/11/15 09:01:27;;;;;;;4.40;3.25;;;13.50;99.90;;;;;;5034634;28;20052;-74
2022/11/15 09:03:53;;;;;;;3.03;2.75;;;13.60;99.90;;;;;;5023968;28;20438;-73
2022/11/15 09:06:19;;;;;;;4.38;2.45;;;13.50;99.90;;;;;;5039663;28;20033;-73
2022/11/15 09:08:45;;;;;;;3.88;2.42;;;13.40;99.90;;;;;;5030084;28;20017;-73
2022/11/15 09:11:11;;;;;;;2.20;2.00;;;13.50;99.90;;;;;;5035718;28;20022;-71
2022/11/15 09:13:37;;;;;;;6.50;2.58;;;13.40;99.90;;;;;;5032042;28;20393;-72
2022/11/15 09:16:05;;;;;;;3.10;2.08;;;13.50;99.90;;;;;;5031839;28;20105;-71
2022/11/15 09:18:31;;;;;;;3.90;1.70;;;13.50;99.90;;;;;;5049727;28;20033;-73
2022/11/15 09:20:58;;;;;;;2.90;1.50;;;13.50;99.90;;;;;;5035085;28;20116;-73
2022/11/15 09:23:25;;;;;;;3.80;1.50;;;13.40;99.90;;;;;;5033786;28;20174;-72
2022/11/15 09:25:51;;;;;;;9.02;1.83;;;13.40;99.90;;;;;;5037230;28;20021;-73
2022/11/15 09:28:17;;;;;;;4.60;1.48;;;13.40;99.90;;;;;;5031616;28;20462;-73
2022/11/15 09:30:45;;;;;;;3.22;1.40;;;13.40;99.90;;;;;;5014848;28;20040;-74
2022/11/15 09:33:12;;;;;;;1.55;1.38;;;13.40;99.90;;;;;;5038067;28;20029;-73
2022/11/15 09:35:38;;;;;;;4.65;1.60;;;13.60;99.90;;;;;;5032219;28;20026;-73
2022/11/15 09:38:04;;;;;;;3.00;1.27;;;13.60;99.90;;;;;;5032592;28;20043;-73
2022/11/15 09:40:37;;;;;;;2.95;0.90;;;13.70;99.90;;;;;;5034619;28;20025;-74
2022/11/15 09:43:08;;;;;;;;;;;13.60;99.90;;;;;;5035348;28;20032;-73
2022/11/15 09:46:01;;;;;;;4.38;0.90;;;13.60;99.90;;;;;;5034177;28;20313;-73
2022/11/15 09:48:37;;;;;;;5.07;1.70;;;13.60;99.90;;;;;;5034207;28;20064;-71
2022/11/15 09:51:04;;;;;;;4.72;1.30;;;13.80;99.90;;;;;;5041344;28;20033;-72
2022/11/15 09:53:48;;;;;;;0.88;0.88;;;13.70;99.90;;;;;;5030835;28;20044;-73
2022/11/15 09:56:19;;;;;;;1.02;0.93;;;13.80;99.90;;;;;;5030621;28;20461;-73
2022/11/15 09:58:53;;;;;;;2.75;1.08;;;14.00;99.90;;;;;;5026770;28;20076;-75
2022/11/15 10:01:53;;;;;;;2.25;0.98;;;14.20;99.90;;;;;;5035225;28;20393;-71
2022/11/15 10:04:21;;;;;;;3.80;1.33;;;14.30;99.90;;;;;;5031077;28;20047;-73
2022/11/15 10:06:53;;;;;;;4.68;1.80;;;14.30;99.90;;;;;;5033116;28;20036;-73
2022/11/15 10:09:33;;;;;;;2.10;1.60;;;14.50;99.90;;;;;;5031089;28;20026;-73
2022/11/15 10:11:59;;;;;;;4.05;1.73;;;14.50;99.90;;;;;;5038280;28;20115;-73
2022/11/15 10:14:30;;;;;;;2.60;1.17;;;14.60;99.90;;;;;;5032753;28;20033;-72
2022/11/15 10:17:02;;;;;;;2.92;1.65;;;14.60;99.90;;;;;;5033135;28;20029;-73
2022/11/15 10:20:06;;;;;;;7.63;1.70;;;14.80;99.90;;;;;;5028414;28;20026;-73
2022/11/15 10:22:38;;;;;;;2.38;1.38;;;14.90;99.90;;;;;;5026325;28;20037;-75
2022/11/15 10:25:06;;;;;;;3.45;1.40;;;15.20;99.90;;;;;;5031596;28;20121;-75
2022/11/15 10:27:35;;;;;;;2.70;1.70;;;15.10;99.90;;;;;;5032885;28;20466;-74
2022/11/15 10:30:01;;;;;;;3.67;1.95;;;15.40;99.90;;;;;;5034839;28;20116;-70
2022/11/15 10:32:32;;;;;;;9.35;3.58;;;15.70;99.90;;;;;;5031639;28;20124;-71
2022/11/15 10:35:15;;;;;;;1.92;1.20;;;15.90;99.90;;;;;;5034658;28;20029;-75
2022/11/15 10:37:43;;;;;;;5.97;1.55;;;16.00;99.90;;;;;;5028145;28;20029;-73
2022/11/15 10:40:21;;;;;;;2.13;1.30;;;16.10;99.90;;;;;;5027975;28;20481;-75
2022/11/15 10:42:47;;;;;;;2.88;1.27;;;16.50;99.90;;;;;;5025993;28;20053;-71
2022/11/15 10:45:27;;;;;;;3.42;1.30;;;16.70;99.90;;;;;;5027231;28;20479;-72
2022/11/15 10:47:53;;;;;;;1.27;0.98;;;16.70;99.90;;;;;;5027908;28;20025;-74
2022/11/15 10:50:31;;;;;;;2.28;1.30;;;16.70;99.90;;;;;;5036749;28;20493;-73
2022/11/15 10:52:58;;;;;;;25.50;11.77;;;16.80;99.90;;;;;;5034198;28;20056;-71
2022/11/15 10:55:28;;;;;;;441.17;130.07;;;16.80;99.90;;;;;;5033751;28;20033;-75
2022/11/15 10:58:34;;;;;;;1.73;1.50;;;16.80;99.90;;;;;;5040219;28;20048;-76
2022/11/15 11:01:10;;;;;;;1.80;1.10;;;17.00;99.90;;;;;;5037322;28;20206;-75
2022/11/15 11:03:40;;;;;;;1.95;1.48;;;17.10;99.90;;;;;;5036610;28;20363;-72
2022/11/15 11:06:17;;;;;;;2.55;1.15;;;17.20;99.90;;;;;;5030048;28;20037;-72
2022/11/15 11:08:59;;;;;;;4.30;1.48;;;16.90;99.90;;;;;;5027351;28;20021;-73
2022/11/15 11:11:43;;;;;;;3.53;1.70;;;17.00;99.90;;;;;;5025687;28;20026;-75
2022/11/15 11:14:26;;;;;;;2.53;2.00;;;17.00;99.90;;;;;;5029782;28;20022;-74
2022/11/15 11:17:02;;;;;;;3.78;2.17;;;17.00;99.90;;;;;;5034097;28;20031;-73
2022/11/15 11:19:52;;;;;;;4.28;2.17;;;17.10;99.90;;;;;;5033037;28;20068;-73
2022/11/15 11:22:32;;;;;;;272.73;112.70;;;17.30;99.90;;;;;;5034268;28;20029;-71
2022/11/15 11:25:13;;;;;;;5.50;2.85;;;17.20;99.90;;;;;;5047718;28;20021;-74
2022/11/15 11:27:54;;;;;;;7.78;2.53;;;17.40;99.90;;;;;;5029803;28;20040;-74
2022/11/15 11:30:34;;;;;;;6.57;2.22;;;17.50;99.90;;;;;;5028719;28;20108;-73
2022/11/15 11:33:34;;;;;;;4.88;1.83;;;17.40;99.90;;;;;;5025774;28;20595;-74
2022/11/15 11:36:28;;;;;;;6.93;2.00;;;17.50;99.90;;;;;;5005060;28;20053;-72
2022/11/15 11:39:08;;;;;;;4.03;2.10;;;17.30;99.90;;;;;;5032999;28;20033;-75
2022/11/15 11:42:06;;;;;;;3.90;1.73;;;17.00;99.90;;;;;;5030677;28;20064;-73
2022/11/15 11:44:40;;;;;;;4.07;2.08;;;17.10;99.90;;;;;;5038466;28;20032;-72
2022/11/15 11:47:22;;;;;;;2.80;1.77;;;17.00;99.90;;;;;;5033971;28;20025;-73
2022/11/15 11:49:52;;;;;;;2.50;1.55;;;17.40;99.90;;;;;;5042584;28;20040;-75
2022/11/15 11:52:18;;;;;;;2.70;1.52;;;17.40;99.60;;;;;;5036164;28;20549;-75
2022/11/15 11:54:58;;;;;;;2.38;1.90;;;17.50;99.60;;;;;;5028349;28;20028;-73
2022/11/15 11:57:48;;;;;;;3.97;2.13;;;17.60;98.40;;;;;;5028085;28;20029;-76
2022/11/15 12:00:20;;;;;;;3.78;2.65;;;17.60;97.70;;;;;;5024335;28;20030;-72
2022/11/15 12:03:07;;;;;;;3.22;2.85;;;17.60;97.50;;;;;;5032582;28;20125;-74
2022/11/15 12:05:41;;;;;;;4.25;2.60;;;17.90;97.90;;;;;;5032278;28;20052;-76
2022/11/15 12:08:32;;;;;;;7.43;2.65;;;18.20;97.30;;;;;;5031593;28;20147;-73
2022/11/15 12:11:11;;;;;;;3.20;2.28;;;18.20;96.10;;;;;;5027263;28;20174;-75
2022/11/15 12:13:40;;;;;;;2.20;1.70;;;18.20;95.20;;;;;;5037303;28;20026;-72
2022/11/15 12:16:26;;;;;;;2.30;1.52;;;18.20;94.10;;;;;;5018547;28;20442;-75
2022/11/15 12:18:55;;;;;;;2.72;1.77;;;18.10;92.50;;;;;;5029221;28;20033;-74
2022/11/15 12:21:48;;;;;;;5.45;1.73;;;18.30;92.80;;;;;;5014212;28;20339;-75
2022/11/15 12:24:40;;;;;;;6.63;1.63;;;18.30;92.00;;;;;;5031813;28;20025;-76
2022/11/15 12:27:40;;;;;;;3.38;1.30;;;18.30;91.50;;;;;;5035108;28;20030;-76
2022/11/15 12:30:11;;;;;;;3.97;1.30;;;18.10;90.90;;;;;;5032327;28;20086;-76
2022/11/15 12:32:47;;;;;;;46.05;16.88;;;18.10;91.80;;;;;;5037361;28;20029;-77
2022/11/15 12:35:37;;;;;;;5.15;1.67;;;18.30;90.50;;;;;;5035369;28;20037;-77
2022/11/15 12:38:03;;;;;;;2.92;1.40;;;18.50;88.70;;;;;;5036058;28;20033;-77
2022/11/15 12:40:32;;;;;;;1.98;1.23;;;18.50;87.60;;;;;;5036051;28;20064;-76
2022/11/15 12:43:01;;;;;;;6.22;1.30;;;18.30;87.10;;;;;;5034235;28;20033;-75
2022/11/15 12:45:38;;;;;;;2.45;1.15;;;18.30;87.80;;;;;;5031980;28;20423;-76
2022/11/15 12:48:19;;;;;;;1.70;1.30;;;18.50;87.00;;;;;;5026953;28;20076;-74
2022/11/15 12:50:51;;;;;;;4.30;1.88;;;18.70;85.00;;;;;;5026903;28;20029;-76
2022/11/15 12:53:25;;;;;;;2.73;1.70;;;18.80;84.80;;;;;;5024993;28;20038;-77
2022/11/15 12:56:05;;;;;;;2.13;1.15;;;19.00;85.70;;;;;;5020869;28;20502;-76
2022/11/15 12:58:48;;;;;;;3.33;1.42;;;19.40;84.00;;;;;;5039825;28;20045;-77
2022/11/15 13:04:20;;;;;;;2.95;1.20;;;20.20;79.10;;;;;;5036155;28;20033;-76
2022/11/15 13:06:57;;;;;;;3.55;1.30;;;21.20;75.70;;;;;;5034912;28;20030;-74
2022/11/15 13:09:32;;;;;;;2.13;1.20;;;21.90;72.60;;;;;;5022197;28;20486;-75
2022/11/15 13:12:26;;;;;;;3.63;1.30;;;22.40;68.10;;;;;;5027880;28;20121;-74
2022/11/15 13:14:56;;;;;;;2.70;0.98;;;23.70;64.70;;;;;;5029451;28;20137;-75
2022/11/15 13:17:25;;;;;;;5.78;1.48;;;25.50;60.10;;;;;;5014192;28;20454;-75